sensor_id;sensor_type;location;lat;lon;timestamp;P1;durP1;ratioP1;P2;durP2;ratioP2
6113;SDS011;3087;48.392;10.836;2023-04-30T00:00:13;5.93;;;5.03;;
6113;SDS011;3087;48.392;10.836;2023-04-30T00:02:39;6.30;;;5.40;;
6113;SDS011;3087;48.392;10.836;2023-04-30T00:05:04;5.95;;;5.25;;
6113;SDS011;3087;48.392;10.836;2023-04-30T00:07:30;6.63;;;5.38;;
6113;SDS011;3087;48.392;10.836;2023-04-30T00:09:56;5.72;;;5.13;;
6113;SDS011;3087;48.392;10.836;2023-04-30T00:12:22;5.60;;;4.97;;
6113;SDS011;3087;48.392;10.836;2023-04-30T00:14:47;6.45;;;5.35;;
6113;SDS011;3087;48.392;10.836;2023-04-30T00:17:13;6.15;;;5.50;;
6113;SDS011;3087;48.392;10.836;2023-04-30T00:19:40;5.80;;;5.15;;
6113;SDS011;3087;48.392;10.836;2023-04-30T00:22:06;6.30;;;5.70;;
6113;SDS011;3087;48.392;10.836;2023-04-30T00:24:32;6.82;;;6.13;;
6113;SDS011;3087;48.392;10.836;2023-04-30T00:26:58;6.45;;;5.75;;
6113;SDS011;3087;48.392;10.836;2023-04-30T00:29:24;5.55;;;4.85;;
6113;SDS011;3087;48.392;10.836;2023-04-30T00:31:49;6.13;;;5.43;;
6113;SDS011;3087;48.392;10.836;2023-04-30T00:34:15;6.65;;;5.68;;
6113;SDS011;3087;48.392;10.836;2023-04-30T00:36:41;6.05;;;5.35;;
6113;SDS011;3087;48.392;10.836;2023-04-30T00:39:06;6.10;;;5.47;;
6113;SDS011;3087;48.392;10.836;2023-04-30T00:41:33;9.57;;;5.13;;
6113;SDS011;3087;48.392;10.836;2023-04-30T00:44:01;5.63;;;5.05;;
6113;SDS011;3087;48.392;10.836;2023-04-30T00:46:27;5.93;;;5.32;;
6113;SDS011;3087;48.392;10.836;2023-04-30T00:48:52;6.32;;;5.68;;
6113;SDS011;3087;48.392;10.836;2023-04-30T00:51:18;5.30;;;4.75;;
6113;SDS011;3087;48.392;10.836;2023-04-30T00:53:44;5.95;;;5.35;;
6113;SDS011;3087;48.392;10.836;2023-04-30T00:56:10;5.50;;;5.00;;
6113;SDS011;3087;48.392;10.836;2023-04-30T00:58:40;6.07;;;5.47;;
6113;SDS011;3087;48.392;10.836;2023-04-30T01:01:06;5.93;;;5.32;;
6113;SDS011;3087;48.392;10.836;2023-04-30T01:03:31;5.30;;;4.80;;
6113;SDS011;3087;48.392;10.836;2023-04-30T01:06:00;6.15;;;5.55;;
6113;SDS011;3087;48.392;10.836;2023-04-30T01:08:27;5.45;;;4.95;;
6113;SDS011;3087;48.392;10.836;2023-04-30T01:14:03;5.82;;;5.18;;
6113;SDS011;3087;48.392;10.836;2023-04-30T01:17:16;6.28;;;5.15;;
6113;SDS011;3087;48.392;10.836;2023-04-30T01:19:46;4.97;;;4.45;;
6113;SDS011;3087;48.392;10.836;2023-04-30T01:22:24;5.63;;;5.03;;
6113;SDS011;3087;48.392;10.836;2023-04-30T01:25:10;5.40;;;4.90;;
6113;SDS011;3087;48.392;10.836;2023-04-30T01:30:26;5.70;;;5.15;;
6113;SDS011;3087;48.392;10.836;2023-04-30T01:32:54;5.28;;;4.63;;
6113;SDS011;3087;48.392;10.836;2023-04-30T01:35:20;5.15;;;4.57;;
6113;SDS011;3087;48.392;10.836;2023-04-30T01:41:19;5.45;;;4.53;;
6113;SDS011;3087;48.392;10.836;2023-04-30T01:44:11;4.70;;;4.30;;
6113;SDS011;3087;48.392;10.836;2023-04-30T01:53:01;5.10;;;4.47;;
6113;SDS011;3087;48.392;10.836;2023-04-30T01:58:05;5.32;;;4.78;;
6113;SDS011;3087;48.392;10.836;2023-04-30T02:03:56;6.63;;;5.40;;
6113;SDS011;3087;48.392;10.836;2023-04-30T02:06:23;5.72;;;5.13;;
6113;SDS011;3087;48.392;10.836;2023-04-30T02:08:53;9.63;;;5.63;;
6113;SDS011;3087;48.392;10.836;2023-04-30T02:14:43;7.15;;;5.80;;
6113;SDS011;3087;48.392;10.836;2023-04-30T02:17:09;6.20;;;5.60;;
6113;SDS011;3087;48.392;10.836;2023-04-30T02:19:34;6.70;;;5.78;;
6113;SDS011;3087;48.392;10.836;2023-04-30T02:22:15;5.63;;;5.00;;
6113;SDS011;3087;48.392;10.836;2023-04-30T02:24:41;7.40;;;6.13;;
6113;SDS011;3087;48.392;10.836;2023-04-30T02:27:06;8.50;;;6.65;;
6113;SDS011;3087;48.392;10.836;2023-04-30T02:29:32;9.13;;;5.97;;
6113;SDS011;3087;48.392;10.836;2023-04-30T02:31:58;7.65;;;6.30;;
6113;SDS011;3087;48.392;10.836;2023-04-30T02:34:24;6.43;;;5.82;;
6113;SDS011;3087;48.392;10.836;2023-04-30T02:36:49;6.50;;;5.80;;
6113;SDS011;3087;48.392;10.836;2023-04-30T02:39:15;7.35;;;5.80;;
6113;SDS011;3087;48.392;10.836;2023-04-30T02:41:41;7.15;;;6.45;;
6113;SDS011;3087;48.392;10.836;2023-04-30T02:44:06;7.13;;;6.25;;
6113;SDS011;3087;48.392;10.836;2023-04-30T02:46:32;8.40;;;6.45;;
6113;SDS011;3087;48.392;10.836;2023-04-30T02:48:58;8.15;;;7.32;;
6113;SDS011;3087;48.392;10.836;2023-04-30T02:51:23;8.60;;;7.10;;
6113;SDS011;3087;48.392;10.836;2023-04-30T02:53:49;7.10;;;6.40;;
6113;SDS011;3087;48.392;10.836;2023-04-30T02:56:16;9.30;;;6.88;;
6113;SDS011;3087;48.392;10.836;2023-04-30T02:58:42;7.00;;;6.30;;
6113;SDS011;3087;48.392;10.836;2023-04-30T03:01:12;9.43;;;6.80;;
6113;SDS011;3087;48.392;10.836;2023-04-30T03:03:38;8.95;;;7.72;;
6113;SDS011;3087;48.392;10.836;2023-04-30T03:06:04;7.78;;;6.72;;
6113;SDS011;3087;48.392;10.836;2023-04-30T03:08:29;9.02;;;6.95;;
6113;SDS011;3087;48.392;10.836;2023-04-30T03:10:55;7.63;;;6.82;;
6113;SDS011;3087;48.392;10.836;2023-04-30T03:13:21;7.75;;;6.40;;
6113;SDS011;3087;48.392;10.836;2023-04-30T03:15:49;7.93;;;7.10;;
6113;SDS011;3087;48.392;10.836;2023-04-30T03:18:22;8.95;;;6.95;;
6113;SDS011;3087;48.392;10.836;2023-04-30T03:20:47;9.13;;;7.85;;
6113;SDS011;3087;48.392;10.836;2023-04-30T03:23:13;8.82;;;7.78;;
6113;SDS011;3087;48.392;10.836;2023-04-30T03:25:38;7.90;;;7.10;;
6113;SDS011;3087;48.392;10.836;2023-04-30T03:28:04;7.78;;;6.97;;
6113;SDS011;3087;48.392;10.836;2023-04-30T03:30:30;8.95;;;7.85;;
6113;SDS011;3087;48.392;10.836;2023-04-30T03:32:55;9.57;;;7.97;;
6113;SDS011;3087;48.392;10.836;2023-04-30T03:35:21;7.80;;;7.00;;
6113;SDS011;3087;48.392;10.836;2023-04-30T03:37:47;9.65;;;8.27;;
6113;SDS011;3087;48.392;10.836;2023-04-30T03:40:12;8.52;;;7.60;;
6113;SDS011;3087;48.392;10.836;2023-04-30T03:42:38;9.38;;;8.35;;
6113;SDS011;3087;48.392;10.836;2023-04-30T03:45:04;10.30;;;7.88;;
6113;SDS011;3087;48.392;10.836;2023-04-30T03:47:30;10.23;;;7.60;;
6113;SDS011;3087;48.392;10.836;2023-04-30T03:49:55;9.50;;;7.70;;
6113;SDS011;3087;48.392;10.836;2023-04-30T03:52:21;9.20;;;8.25;;
6113;SDS011;3087;48.392;10.836;2023-04-30T03:54:47;8.52;;;7.63;;
6113;SDS011;3087;48.392;10.836;2023-04-30T03:57:12;10.13;;;8.82;;
6113;SDS011;3087;48.392;10.836;2023-04-30T03:59:38;8.98;;;7.90;;
6113;SDS011;3087;48.392;10.836;2023-04-30T04:02:04;8.85;;;7.95;;
6113;SDS011;3087;48.392;10.836;2023-04-30T04:04:31;8.00;;;7.20;;
6113;SDS011;3087;48.392;10.836;2023-04-30T04:06:57;8.77;;;7.80;;
6113;SDS011;3087;48.392;10.836;2023-04-30T04:09:23;9.02;;;8.05;;
6113;SDS011;3087;48.392;10.836;2023-04-30T04:11:49;11.10;;;8.13;;
6113;SDS011;3087;48.392;10.836;2023-04-30T04:14:15;8.75;;;7.85;;
6113;SDS011;3087;48.392;10.836;2023-04-30T04:16:40;9.35;;;8.35;;
6113;SDS011;3087;48.392;10.836;2023-04-30T04:19:06;10.80;;;8.73;;
6113;SDS011;3087;48.392;10.836;2023-04-30T04:21:32;10.73;;;9.65;;
6113;SDS011;3087;48.392;10.836;2023-04-30T04:23:58;11.70;;;9.60;;
6113;SDS011;3087;48.392;10.836;2023-04-30T04:26:23;8.60;;;7.80;;
6113;SDS011;3087;48.392;10.836;2023-04-30T04:28:49;11.40;;;8.82;;
6113;SDS011;3087;48.392;10.836;2023-04-30T04:31:15;9.68;;;8.68;;
6113;SDS011;3087;48.392;10.836;2023-04-30T04:33:42;10.77;;;9.15;;
6113;SDS011;3087;48.392;10.836;2023-04-30T04:36:08;10.30;;;9.25;;
6113;SDS011;3087;48.392;10.836;2023-04-30T04:38:33;10.25;;;8.73;;
6113;SDS011;3087;48.392;10.836;2023-04-30T04:40:59;9.80;;;8.30;;
6113;SDS011;3087;48.392;10.836;2023-04-30T04:43:26;9.52;;;8.48;;
6113;SDS011;3087;48.392;10.836;2023-04-30T04:45:51;9.73;;;8.35;;
6113;SDS011;3087;48.392;10.836;2023-04-30T04:48:17;9.68;;;8.68;;
6113;SDS011;3087;48.392;10.836;2023-04-30T04:50:43;10.65;;;9.55;;
6113;SDS011;3087;48.392;10.836;2023-04-30T04:53:08;11.23;;;9.65;;
6113;SDS011;3087;48.392;10.836;2023-04-30T04:55:35;9.88;;;8.88;;
6113;SDS011;3087;48.392;10.836;2023-04-30T04:58:01;10.15;;;9.02;;
6113;SDS011;3087;48.392;10.836;2023-04-30T05:00:26;10.52;;;8.02;;
6113;SDS011;3087;48.392;10.836;2023-04-30T05:02:52;10.13;;;9.10;;
6113;SDS011;3087;48.392;10.836;2023-04-30T05:05:18;9.23;;;8.32;;
6113;SDS011;3087;48.392;10.836;2023-04-30T05:07:43;10.25;;;8.88;;
6113;SDS011;3087;48.392;10.836;2023-04-30T05:10:10;9.85;;;8.85;;
6113;SDS011;3087;48.392;10.836;2023-04-30T05:12:35;9.65;;;8.70;;
6113;SDS011;3087;48.392;10.836;2023-04-30T05:15:01;9.10;;;8.20;;
6113;SDS011;3087;48.392;10.836;2023-04-30T05:17:27;10.20;;;8.63;;
6113;SDS011;3087;48.392;10.836;2023-04-30T05:19:52;10.23;;;8.93;;
6113;SDS011;3087;48.392;10.836;2023-04-30T05:22:18;9.45;;;8.50;;
6113;SDS011;3087;48.392;10.836;2023-04-30T05:24:43;9.15;;;8.25;;
6113;SDS011;3087;48.392;10.836;2023-04-30T05:27:09;10.23;;;9.13;;
6113;SDS011;3087;48.392;10.836;2023-04-30T05:29:35;9.70;;;8.10;;
6113;SDS011;3087;48.392;10.836;2023-04-30T05:32:01;10.93;;;8.38;;
6113;SDS011;3087;48.392;10.836;2023-04-30T05:34:26;10.35;;;9.35;;
6113;SDS011;3087;48.392;10.836;2023-04-30T05:36:52;10.88;;;8.93;;
6113;SDS011;3087;48.392;10.836;2023-04-30T05:39:17;10.20;;;8.20;;
6113;SDS011;3087;48.392;10.836;2023-04-30T05:41:43;11.00;;;9.55;;
6113;SDS011;3087;48.392;10.836;2023-04-30T05:44:09;11.48;;;8.60;;
6113;SDS011;3087;48.392;10.836;2023-04-30T05:46:34;11.82;;;9.40;;
6113;SDS011;3087;48.392;10.836;2023-04-30T05:49:00;11.30;;;9.70;;
6113;SDS011;3087;48.392;10.836;2023-04-30T05:51:26;10.00;;;8.65;;
6113;SDS011;3087;48.392;10.836;2023-04-30T05:53:52;11.23;;;9.35;;
6113;SDS011;3087;48.392;10.836;2023-04-30T05:56:18;9.75;;;8.85;;
6113;SDS011;3087;48.392;10.836;2023-04-30T05:58:44;9.68;;;8.73;;
6113;SDS011;3087;48.392;10.836;2023-04-30T06:01:11;9.90;;;8.82;;
6113;SDS011;3087;48.392;10.836;2023-04-30T06:03:36;11.68;;;9.63;;
6113;SDS011;3087;48.392;10.836;2023-04-30T06:06:02;10.73;;;8.52;;
6113;SDS011;3087;48.392;10.836;2023-04-30T06:08:28;10.30;;;9.20;;
6113;SDS011;3087;48.392;10.836;2023-04-30T06:10:54;9.57;;;8.63;;
6113;SDS011;3087;48.392;10.836;2023-04-30T06:13:21;10.30;;;9.23;;
6113;SDS011;3087;48.392;10.836;2023-04-30T06:15:47;10.00;;;8.90;;
6113;SDS011;3087;48.392;10.836;2023-04-30T06:18:12;11.30;;;9.70;;
6113;SDS011;3087;48.392;10.836;2023-04-30T06:20:38;9.95;;;8.95;;
6113;SDS011;3087;48.392;10.836;2023-04-30T06:23:04;9.90;;;8.90;;
6113;SDS011;3087;48.392;10.836;2023-04-30T06:25:30;12.32;;;8.88;;
6113;SDS011;3087;48.392;10.836;2023-04-30T06:27:55;10.30;;;9.27;;
6113;SDS011;3087;48.392;10.836;2023-04-30T06:30:21;11.50;;;8.75;;
6113;SDS011;3087;48.392;10.836;2023-04-30T06:32:46;10.82;;;9.68;;
6113;SDS011;3087;48.392;10.836;2023-04-30T06:35:13;9.80;;;8.80;;
6113;SDS011;3087;48.392;10.836;2023-04-30T06:37:39;9.75;;;8.57;;
6113;SDS011;3087;48.392;10.836;2023-04-30T06:40:05;9.85;;;8.95;;
6113;SDS011;3087;48.392;10.836;2023-04-30T06:42:31;10.52;;;8.73;;
6113;SDS011;3087;48.392;10.836;2023-04-30T06:45:01;9.85;;;8.85;;
6113;SDS011;3087;48.392;10.836;2023-04-30T06:47:29;9.88;;;8.88;;
6113;SDS011;3087;48.392;10.836;2023-04-30T06:50:02;9.20;;;8.30;;
6113;SDS011;3087;48.392;10.836;2023-04-30T06:52:28;10.18;;;8.63;;
6113;SDS011;3087;48.392;10.836;2023-04-30T06:54:55;9.05;;;7.28;;
6113;SDS011;3087;48.392;10.836;2023-04-30T06:57:20;9.30;;;7.82;;
6113;SDS011;3087;48.392;10.836;2023-04-30T06:59:46;9.73;;;8.20;;
6113;SDS011;3087;48.392;10.836;2023-04-30T07:02:12;8.90;;;7.65;;
6113;SDS011;3087;48.392;10.836;2023-04-30T07:04:37;8.15;;;7.35;;
6113;SDS011;3087;48.392;10.836;2023-04-30T07:07:03;10.57;;;7.80;;
6113;SDS011;3087;48.392;10.836;2023-04-30T07:09:29;7.82;;;7.05;;
6113;SDS011;3087;48.392;10.836;2023-04-30T07:11:54;10.40;;;7.38;;
6113;SDS011;3087;48.392;10.836;2023-04-30T07:14:21;8.55;;;7.70;;
6113;SDS011;3087;48.392;10.836;2023-04-30T07:16:48;8.57;;;7.05;;
6113;SDS011;3087;48.392;10.836;2023-04-30T07:19:14;9.55;;;8.52;;
6113;SDS011;3087;48.392;10.836;2023-04-30T07:21:40;7.88;;;7.07;;
6113;SDS011;3087;48.392;10.836;2023-04-30T07:24:06;9.55;;;8.20;;
6113;SDS011;3087;48.392;10.836;2023-04-30T07:26:32;11.55;;;7.47;;
6113;SDS011;3087;48.392;10.836;2023-04-30T07:28:57;8.75;;;7.88;;
6113;SDS011;3087;48.392;10.836;2023-04-30T07:31:23;7.95;;;6.80;;
6113;SDS011;3087;48.392;10.836;2023-04-30T07:33:49;7.97;;;7.18;;
6113;SDS011;3087;48.392;10.836;2023-04-30T07:36:16;7.97;;;7.18;;
6113;SDS011;3087;48.392;10.836;2023-04-30T07:38:42;8.60;;;7.40;;
6113;SDS011;3087;48.392;10.836;2023-04-30T07:41:07;7.80;;;7.00;;
6113;SDS011;3087;48.392;10.836;2023-04-30T07:43:36;8.13;;;7.43;;
6113;SDS011;3087;48.392;10.836;2023-04-30T07:46:01;8.63;;;7.13;;
6113;SDS011;3087;48.392;10.836;2023-04-30T07:48:28;8.68;;;7.65;;
6113;SDS011;3087;48.392;10.836;2023-04-30T07:50:54;7.80;;;7.03;;
6113;SDS011;3087;48.392;10.836;2023-04-30T07:53:20;7.88;;;7.07;;
6113;SDS011;3087;48.392;10.836;2023-04-30T07:55:47;7.88;;;7.07;;
6113;SDS011;3087;48.392;10.836;2023-04-30T07:58:12;8.10;;;7.30;;
6113;SDS011;3087;48.392;10.836;2023-04-30T08:00:38;7.00;;;6.38;;
6113;SDS011;3087;48.392;10.836;2023-04-30T08:03:04;7.90;;;7.10;;
6113;SDS011;3087;48.392;10.836;2023-04-30T08:05:29;7.43;;;6.70;;
6113;SDS011;3087;48.392;10.836;2023-04-30T08:07:55;7.65;;;6.95;;
6113;SDS011;3087;48.392;10.836;2023-04-30T08:10:21;9.02;;;7.10;;
6113;SDS011;3087;48.392;10.836;2023-04-30T08:12:46;7.53;;;6.82;;
6113;SDS011;3087;48.392;10.836;2023-04-30T08:15:12;6.90;;;6.20;;
6113;SDS011;3087;48.392;10.836;2023-04-30T08:17:37;7.15;;;6.45;;
6113;SDS011;3087;48.392;10.836;2023-04-30T08:20:03;8.20;;;7.03;;
6113;SDS011;3087;48.392;10.836;2023-04-30T08:22:30;7.20;;;6.50;;
6113;SDS011;3087;48.392;10.836;2023-04-30T08:24:56;7.15;;;6.30;;
6113;SDS011;3087;48.392;10.836;2023-04-30T08:27:22;8.38;;;6.65;;
6113;SDS011;3087;48.392;10.836;2023-04-30T08:29:48;7.40;;;5.63;;
6113;SDS011;3087;48.392;10.836;2023-04-30T08:32:13;7.05;;;6.00;;
6113;SDS011;3087;48.392;10.836;2023-04-30T08:34:39;8.45;;;6.53;;
6113;SDS011;3087;48.392;10.836;2023-04-30T08:37:05;6.75;;;5.97;;
6113;SDS011;3087;48.392;10.836;2023-04-30T08:39:31;7.68;;;6.30;;
6113;SDS011;3087;48.392;10.836;2023-04-30T08:41:57;8.32;;;6.85;;
6113;SDS011;3087;48.392;10.836;2023-04-30T08:44:26;7.13;;;6.43;;
6113;SDS011;3087;48.392;10.836;2023-04-30T08:46:53;7.88;;;6.85;;
6113;SDS011;3087;48.392;10.836;2023-04-30T08:49:22;6.78;;;6.07;;
6113;SDS011;3087;48.392;10.836;2023-04-30T08:51:49;6.57;;;5.72;;
6113;SDS011;3087;48.392;10.836;2023-04-30T08:54:16;6.55;;;5.90;;
6113;SDS011;3087;48.392;10.836;2023-04-30T08:56:44;8.43;;;6.68;;
6113;SDS011;3087;48.392;10.836;2023-04-30T08:59:10;7.60;;;6.90;;
6113;SDS011;3087;48.392;10.836;2023-04-30T09:01:37;6.80;;;6.10;;
6113;SDS011;3087;48.392;10.836;2023-04-30T09:04:02;7.25;;;6.53;;
6113;SDS011;3087;48.392;10.836;2023-04-30T09:06:29;7.82;;;7.03;;
6113;SDS011;3087;48.392;10.836;2023-04-30T09:08:55;7.10;;;6.43;;
6113;SDS011;3087;48.392;10.836;2023-04-30T09:11:28;7.07;;;6.38;;
6113;SDS011;3087;48.392;10.836;2023-04-30T09:13:58;6.75;;;5.60;;
6113;SDS011;3087;48.392;10.836;2023-04-30T09:16:25;7.80;;;6.03;;
6113;SDS011;3087;48.392;10.836;2023-04-30T09:18:54;8.63;;;6.10;;
6113;SDS011;3087;48.392;10.836;2023-04-30T09:21:30;6.45;;;5.82;;
6113;SDS011;3087;48.392;10.836;2023-04-30T09:24:00;6.75;;;5.65;;
6113;SDS011;3087;48.392;10.836;2023-04-30T09:26:31;6.60;;;5.50;;
6113;SDS011;3087;48.392;10.836;2023-04-30T09:29:01;6.63;;;6.03;;
6113;SDS011;3087;48.392;10.836;2023-04-30T09:31:32;5.43;;;4.43;;
6113;SDS011;3087;48.392;10.836;2023-04-30T09:33:58;5.00;;;4.50;;
6113;SDS011;3087;48.392;10.836;2023-04-30T09:36:24;4.95;;;4.45;;
6113;SDS011;3087;48.392;10.836;2023-04-30T09:38:50;4.90;;;4.43;;
6113;SDS011;3087;48.392;10.836;2023-04-30T09:41:26;4.57;;;4.05;;
6113;SDS011;3087;48.392;10.836;2023-04-30T09:43:53;5.75;;;4.95;;
6113;SDS011;3087;48.392;10.836;2023-04-30T09:46:19;5.25;;;4.75;;
6113;SDS011;3087;48.392;10.836;2023-04-30T09:48:46;5.30;;;4.80;;
6113;SDS011;3087;48.392;10.836;2023-04-30T09:51:19;5.88;;;5.22;;
6113;SDS011;3087;48.392;10.836;2023-04-30T09:53:45;5.63;;;5.00;;
6113;SDS011;3087;48.392;10.836;2023-04-30T09:56:11;5.72;;;4.80;;
6113;SDS011;3087;48.392;10.836;2023-04-30T09:58:40;5.25;;;4.75;;
6113;SDS011;3087;48.392;10.836;2023-04-30T10:01:08;5.15;;;4.65;;
6113;SDS011;3087;48.392;10.836;2023-04-30T10:03:35;8.55;;;5.25;;
6113;SDS011;3087;48.392;10.836;2023-04-30T10:06:04;5.93;;;5.15;;
6113;SDS011;3087;48.392;10.836;2023-04-30T10:08:32;7.38;;;4.90;;
6113;SDS011;3087;48.392;10.836;2023-04-30T10:11:05;6.15;;;5.07;;
6113;SDS011;3087;48.392;10.836;2023-04-30T10:13:34;6.40;;;5.80;;
6113;SDS011;3087;48.392;10.836;2023-04-30T10:16:07;5.80;;;4.63;;
6113;SDS011;3087;48.392;10.836;2023-04-30T10:18:49;5.55;;;5.05;;
6113;SDS011;3087;48.392;10.836;2023-04-30T10:21:16;5.72;;;4.85;;
6113;SDS011;3087;48.392;10.836;2023-04-30T10:23:44;4.60;;;4.20;;
6113;SDS011;3087;48.392;10.836;2023-04-30T10:26:10;5.55;;;5.05;;
6113;SDS011;3087;48.392;10.836;2023-04-30T10:28:36;5.10;;;4.60;;
6113;SDS011;3087;48.392;10.836;2023-04-30T10:31:03;5.43;;;4.40;;
6113;SDS011;3087;48.392;10.836;2023-04-30T10:33:31;5.22;;;4.68;;
6113;SDS011;3087;48.392;10.836;2023-04-30T10:36:13;4.07;;;3.72;;
6113;SDS011;3087;48.392;10.836;2023-04-30T10:38:47;4.18;;;3.78;;
6113;SDS011;3087;48.392;10.836;2023-04-30T10:41:13;4.20;;;3.80;;
6113;SDS011;3087;48.392;10.836;2023-04-30T10:43:39;4.97;;;3.95;;
6113;SDS011;3087;48.392;10.836;2023-04-30T10:46:05;5.28;;;3.90;;
6113;SDS011;3087;48.392;10.836;2023-04-30T10:48:32;6.20;;;3.88;;
6113;SDS011;3087;48.392;10.836;2023-04-30T10:50:59;6.07;;;4.20;;
6113;SDS011;3087;48.392;10.836;2023-04-30T10:53:25;4.45;;;4.05;;
6113;SDS011;3087;48.392;10.836;2023-04-30T10:56:04;4.70;;;3.80;;
6113;SDS011;3087;48.392;10.836;2023-04-30T10:58:33;4.10;;;3.70;;
6113;SDS011;3087;48.392;10.836;2023-04-30T11:01:04;4.93;;;3.70;;
6113;SDS011;3087;48.392;10.836;2023-04-30T11:03:39;5.50;;;4.10;;
6113;SDS011;3087;48.392;10.836;2023-04-30T11:06:13;3.63;;;3.33;;
6113;SDS011;3087;48.392;10.836;2023-04-30T11:08:43;6.03;;;5.43;;
6113;SDS011;3087;48.392;10.836;2023-04-30T11:11:10;4.22;;;3.53;;
6113;SDS011;3087;48.392;10.836;2023-04-30T11:13:39;3.70;;;3.40;;
6113;SDS011;3087;48.392;10.836;2023-04-30T11:16:08;5.65;;;3.70;;
6113;SDS011;3087;48.392;10.836;2023-04-30T11:18:39;4.25;;;3.85;;
6113;SDS011;3087;48.392;10.836;2023-04-30T11:21:09;3.55;;;3.25;;
6113;SDS011;3087;48.392;10.836;2023-04-30T11:23:39;5.15;;;3.45;;
6113;SDS011;3087;48.392;10.836;2023-04-30T11:26:07;3.30;;;3.00;;
6113;SDS011;3087;48.392;10.836;2023-04-30T11:28:33;4.32;;;3.38;;
6113;SDS011;3087;48.392;10.836;2023-04-30T11:31:00;3.55;;;3.25;;
6113;SDS011;3087;48.392;10.836;2023-04-30T11:33:27;5.30;;;3.33;;
6113;SDS011;3087;48.392;10.836;2023-04-30T11:35:54;3.78;;;3.47;;
6113;SDS011;3087;48.392;10.836;2023-04-30T11:38:24;3.03;;;2.75;;
6113;SDS011;3087;48.392;10.836;2023-04-30T11:40:55;4.22;;;2.65;;
6113;SDS011;3087;48.392;10.836;2023-04-30T11:43:25;4.10;;;3.53;;
6113;SDS011;3087;48.392;10.836;2023-04-30T11:48:34;4.47;;;3.83;;
6113;SDS011;3087;48.392;10.836;2023-04-30T11:51:14;3.65;;;3.35;;
6113;SDS011;3087;48.392;10.836;2023-04-30T11:53:45;3.95;;;3.40;;
6113;SDS011;3087;48.392;10.836;2023-04-30T11:56:12;5.25;;;3.75;;
6113;SDS011;3087;48.392;10.836;2023-04-30T11:58:38;4.53;;;3.72;;
6113;SDS011;3087;48.392;10.836;2023-04-30T12:01:07;4.65;;;3.65;;
6113;SDS011;3087;48.392;10.836;2023-04-30T12:03:39;5.97;;;4.07;;
6113;SDS011;3087;48.392;10.836;2023-04-30T12:06:25;3.30;;;3.00;;
6113;SDS011;3087;48.392;10.836;2023-04-30T12:08:52;6.18;;;3.97;;
6113;SDS011;3087;48.392;10.836;2023-04-30T12:11:19;4.50;;;3.30;;
6113;SDS011;3087;48.392;10.836;2023-04-30T12:13:49;4.15;;;3.75;;
6113;SDS011;3087;48.392;10.836;2023-04-30T12:16:18;4.05;;;3.63;;
6113;SDS011;3087;48.392;10.836;2023-04-30T12:18:44;4.25;;;3.85;;
6113;SDS011;3087;48.392;10.836;2023-04-30T12:21:10;4.57;;;3.65;;
6113;SDS011;3087;48.392;10.836;2023-04-30T12:23:36;5.25;;;3.60;;
6113;SDS011;3087;48.392;10.836;2023-04-30T12:26:02;3.58;;;3.28;;
6113;SDS011;3087;48.392;10.836;2023-04-30T12:28:27;4.00;;;3.60;;
6113;SDS011;3087;48.392;10.836;2023-04-30T12:30:53;3.40;;;3.10;;
6113;SDS011;3087;48.392;10.836;2023-04-30T12:33:19;5.80;;;4.05;;
6113;SDS011;3087;48.392;10.836;2023-04-30T12:35:45;4.00;;;3.53;;
6113;SDS011;3087;48.392;10.836;2023-04-30T12:38:14;4.93;;;3.78;;
6113;SDS011;3087;48.392;10.836;2023-04-30T12:40:45;4.00;;;3.60;;
6113;SDS011;3087;48.392;10.836;2023-04-30T12:43:13;4.55;;;3.95;;
6113;SDS011;3087;48.392;10.836;2023-04-30T12:45:48;5.15;;;4.28;;
6113;SDS011;3087;48.392;10.836;2023-04-30T12:48:22;5.32;;;3.53;;
6113;SDS011;3087;48.392;10.836;2023-04-30T12:50:57;4.57;;;3.28;;
6113;SDS011;3087;48.392;10.836;2023-04-30T12:53:25;4.20;;;3.35;;
6113;SDS011;3087;48.392;10.836;2023-04-30T12:56:11;4.05;;;3.25;;
6113;SDS011;3087;48.392;10.836;2023-04-30T12:58:39;4.22;;;3.83;;
6113;SDS011;3087;48.392;10.836;2023-04-30T13:01:09;4.22;;;3.83;;
6113;SDS011;3087;48.392;10.836;2023-04-30T13:03:36;4.90;;;3.83;;
6113;SDS011;3087;48.392;10.836;2023-04-30T13:06:01;3.95;;;3.53;;
6113;SDS011;3087;48.392;10.836;2023-04-30T13:08:28;4.07;;;3.42;;
6113;SDS011;3087;48.392;10.836;2023-04-30T13:10:54;3.88;;;3.53;;
6113;SDS011;3087;48.392;10.836;2023-04-30T13:13:20;4.15;;;3.75;;
6113;SDS011;3087;48.392;10.836;2023-04-30T13:15:45;3.40;;;3.10;;
6113;SDS011;3087;48.392;10.836;2023-04-30T13:21:34;3.75;;;3.42;;
6113;SDS011;3087;48.392;10.836;2023-04-30T13:24:00;3.55;;;3.25;;
6113;SDS011;3087;48.392;10.836;2023-04-30T13:26:26;3.40;;;3.10;;
6113;SDS011;3087;48.392;10.836;2023-04-30T13:28:52;4.93;;;3.38;;
6113;SDS011;3087;48.392;10.836;2023-04-30T13:31:18;3.75;;;3.25;;
6113;SDS011;3087;48.392;10.836;2023-04-30T13:33:44;4.47;;;4.03;;
6113;SDS011;3087;48.392;10.836;2023-04-30T13:36:10;3.67;;;3.38;;
6113;SDS011;3087;48.392;10.836;2023-04-30T13:38:35;3.53;;;3.17;;
6113;SDS011;3087;48.392;10.836;2023-04-30T13:41:02;5.72;;;3.10;;
6113;SDS011;3087;48.392;10.836;2023-04-30T13:43:28;3.90;;;3.50;;
6113;SDS011;3087;48.392;10.836;2023-04-30T13:45:55;3.28;;;2.97;;
6113;SDS011;3087;48.392;10.836;2023-04-30T13:48:23;4.45;;;3.55;;
6113;SDS011;3087;48.392;10.836;2023-04-30T13:50:50;4.35;;;3.22;;
6113;SDS011;3087;48.392;10.836;2023-04-30T13:53:16;3.97;;;3.47;;
6113;SDS011;3087;48.392;10.836;2023-04-30T13:55:42;4.25;;;3.63;;
6113;SDS011;3087;48.392;10.836;2023-04-30T13:58:08;3.95;;;3.55;;
6113;SDS011;3087;48.392;10.836;2023-04-30T14:00:33;5.90;;;4.80;;
6113;SDS011;3087;48.392;10.836;2023-04-30T14:02:59;3.75;;;3.33;;
6113;SDS011;3087;48.392;10.836;2023-04-30T14:05:25;6.75;;;4.82;;
6113;SDS011;3087;48.392;10.836;2023-04-30T14:07:51;4.38;;;3.72;;
6113;SDS011;3087;48.392;10.836;2023-04-30T14:10:17;5.43;;;3.88;;
6113;SDS011;3087;48.392;10.836;2023-04-30T14:12:42;9.80;;;8.88;;
6113;SDS011;3087;48.392;10.836;2023-04-30T14:15:08;15.68;;;14.27;;
6113;SDS011;3087;48.392;10.836;2023-04-30T14:17:34;10.57;;;9.68;;
6113;SDS011;3087;48.392;10.836;2023-04-30T14:19:59;11.10;;;10.20;;
6113;SDS011;3087;48.392;10.836;2023-04-30T14:22:27;4.50;;;3.20;;
6113;SDS011;3087;48.392;10.836;2023-04-30T14:24:53;2.90;;;2.70;;
6113;SDS011;3087;48.392;10.836;2023-04-30T14:27:18;4.70;;;3.45;;
6113;SDS011;3087;48.392;10.836;2023-04-30T14:29:45;3.10;;;2.80;;
6113;SDS011;3087;48.392;10.836;2023-04-30T14:32:11;3.72;;;2.88;;
6113;SDS011;3087;48.392;10.836;2023-04-30T14:34:38;3.60;;;3.03;;
6113;SDS011;3087;48.392;10.836;2023-04-30T14:37:03;3.53;;;3.22;;
6113;SDS011;3087;48.392;10.836;2023-04-30T14:39:29;4.00;;;2.95;;
6113;SDS011;3087;48.392;10.836;2023-04-30T14:41:55;5.03;;;3.00;;
6113;SDS011;3087;48.392;10.836;2023-04-30T14:44:21;3.83;;;2.50;;
6113;SDS011;3087;48.392;10.836;2023-04-30T14:46:54;3.25;;;2.63;;
6113;SDS011;3087;48.392;10.836;2023-04-30T14:49:20;4.25;;;3.58;;
6113;SDS011;3087;48.392;10.836;2023-04-30T14:51:45;3.30;;;3.00;;
6113;SDS011;3087;48.392;10.836;2023-04-30T14:54:17;3.30;;;2.80;;
6113;SDS011;3087;48.392;10.836;2023-04-30T14:56:43;3.20;;;2.90;;
6113;SDS011;3087;48.392;10.836;2023-04-30T14:59:10;4.15;;;2.70;;
6113;SDS011;3087;48.392;10.836;2023-04-30T15:01:38;3.50;;;3.13;;
6113;SDS011;3087;48.392;10.836;2023-04-30T15:04:03;3.75;;;3.05;;
6113;SDS011;3087;48.392;10.836;2023-04-30T15:06:29;4.55;;;2.70;;
6113;SDS011;3087;48.392;10.836;2023-04-30T15:08:55;4.38;;;2.83;;
6113;SDS011;3087;48.392;10.836;2023-04-30T15:11:21;3.50;;;2.20;;
6113;SDS011;3087;48.392;10.836;2023-04-30T15:13:48;3.80;;;2.85;;
6113;SDS011;3087;48.392;10.836;2023-04-30T15:16:14;3.38;;;2.90;;
6113;SDS011;3087;48.392;10.836;2023-04-30T15:22:03;3.35;;;2.90;;
6113;SDS011;3087;48.392;10.836;2023-04-30T15:24:30;3.67;;;2.78;;
6113;SDS011;3087;48.392;10.836;2023-04-30T15:30:18;6.20;;;3.90;;
6113;SDS011;3087;48.392;10.836;2023-04-30T15:32:45;3.40;;;3.10;;
6113;SDS011;3087;48.392;10.836;2023-04-30T15:37:56;4.00;;;2.60;;
6113;SDS011;3087;48.392;10.836;2023-04-30T15:40:22;3.42;;;2.88;;